Saint George, Canada
Current Conditions -  °F | °C
As of 8:00 AM on Saturday 25 Oct 2014 (Local Time) from CYSJ Reporting Station
Overcast Overcast  
Wind Chill:   Ceiling: 700
Heat Index:   Visibility: 10mi
Dew Point:   Wind: 13mph
Humidity: 93%   Direction: 350°N
Pressure: 29.56"   Gusts: NA
Location:  45.13°N, 66.82°W
Report Text: CYSJ 251100Z 35011KT 10SM OVC007 06/05 A2956 RMK SC8 SLP012
Loading
Personal Weather Stations






























Interactive Weather Map
Tropical Storm Tracking
New forecast layout! Learn more

10-Day Weather Forecast

Advertisements
Track Severe Weather on mobile